IBE0605 LEZL-LEMD
Flight info
| Callsign | IBE0605 |
|---|---|
| Flight time | N/A |
| Altitude | 30000 |
| Route | HIJ Z230 SOTUK |
| Aircraft | A320/M-SDE3FGHIRWY/LB1 |
Departure
| Time | 2026-03-26 09:45 |
|---|---|
| Airport | Seville Airport (LEZL) |
Arrival
| Time | N/A |
|---|---|
| Airport | Adolfo Suárez Madrid–Barajas Airport (LEMD) |
| Time | Latitude | Longitude | Altitude | Speed | Heading |
|---|---|---|---|---|---|
| 2026-03-26 09:30 | 37.42126 | -5.89811 | 91 ft | 0 kts | 315° |
| 2026-03-26 09:39 | 37.42134 | -5.89821 | 91 ft | 5 kts | 315° |
| 2026-03-26 09:40 | 37.42154 | -5.89864 | 91 ft | 6 kts | 278° |
| 2026-03-26 09:40 | 37.42137 | -5.89918 | 91 ft | 8 kts | 223° |
| 2026-03-26 09:40 | 37.42082 | -5.89985 | 90 ft | 12 kts | 226° |
| 2026-03-26 09:40 | 37.42050 | -5.90080 | 89 ft | 7 kts | 246° |
| 2026-03-26 09:41 | 37.42024 | -5.90101 | 88 ft | 5 kts | 202° |
| 2026-03-26 09:41 | 37.41993 | -5.90126 | 88 ft | 5 kts | 235° |
| 2026-03-26 09:41 | 37.41980 | -5.90174 | 87 ft | 8 kts | 268° |
| 2026-03-26 09:41 | 37.41978 | -5.90260 | 87 ft | 10 kts | 269° |
| 2026-03-26 09:42 | 37.41977 | -5.90354 | 87 ft | 11 kts | 269° |
| 2026-03-26 09:42 | 37.41977 | -5.90468 | 85 ft | 14 kts | 270° |
| 2026-03-26 09:42 | 37.41978 | -5.90599 | 85 ft | 15 kts | 271° |
| 2026-03-26 09:42 | 37.41980 | -5.90738 | 83 ft | 16 kts | 269° |
| 2026-03-26 09:43 | 37.41978 | -5.90874 | 81 ft | 12 kts | 269° |
| 2026-03-26 09:43 | 37.41953 | -5.90979 | 81 ft | 13 kts | 238° |
| 2026-03-26 09:43 | 37.41906 | -5.91079 | 81 ft | 13 kts | 240° |
| 2026-03-26 09:43 | 37.41858 | -5.91175 | 78 ft | 9 kts | 224° |
| 2026-03-26 09:44 | 37.41799 | -5.91181 | 78 ft | 8 kts | 128° |
| 2026-03-26 09:44 | 37.41788 | -5.91096 | 78 ft | 14 kts | 90° |
| 2026-03-26 09:44 | 37.41791 | -5.90715 | 81 ft | 84 kts | 89° |
| 2026-03-26 09:44 | 37.41802 | -5.89647 | 91 ft | 156 kts | 85° |
| 2026-03-26 09:45 | 37.41856 | -5.88219 | 773 ft | 167 kts | 85° |
| 2026-03-26 09:45 | 37.41870 | -5.86796 | 1673 ft | 168 kts | 88° |
| 2026-03-26 09:45 | 37.41853 | -5.85319 | 2471 ft | 177 kts | 89° |
| 2026-03-26 09:45 | 37.41839 | -5.83712 | 3155 ft | 195 kts | 89° |
| 2026-03-26 09:46 | 37.41851 | -5.81958 | 3819 ft | 213 kts | 83° |
| 2026-03-26 09:46 | 37.42114 | -5.80024 | 4448 ft | 233 kts | 78° |
| 2026-03-26 09:46 | 37.42487 | -5.77971 | 5074 ft | 251 kts | 70° |
| 2026-03-26 09:46 | 37.43399 | -5.76128 | 5902 ft | 258 kts | 45° |
| 2026-03-26 09:47 | 37.44922 | -5.74886 | 6755 ft | 266 kts | 27° |
| 2026-03-26 09:47 | 37.46606 | -5.73891 | 7614 ft | 271 kts | 28° |
| 2026-03-26 09:47 | 37.48292 | -5.72881 | 8478 ft | 274 kts | 28° |
| 2026-03-26 09:47 | 37.50015 | -5.71844 | 9355 ft | 277 kts | 27° |
| 2026-03-26 09:48 | 37.51759 | -5.70793 | 10191 ft | 281 kts | 27° |
| 2026-03-26 09:48 | 37.53554 | -5.69708 | 10710 ft | 297 kts | 27° |
| 2026-03-26 09:48 | 37.55489 | -5.68536 | 11057 ft | 317 kts | 27° |
| 2026-03-26 09:48 | 37.57514 | -5.67310 | 11363 ft | 336 kts | 27° |
| 2026-03-26 09:49 | 37.59683 | -5.65996 | 11630 ft | 353 kts | 27° |
| 2026-03-26 09:49 | 37.61951 | -5.64622 | 12039 ft | 364 kts | 27° |
| 2026-03-26 09:49 | 37.64228 | -5.63242 | 12632 ft | 368 kts | 27° |
| 2026-03-26 09:49 | 37.66540 | -5.61840 | 13272 ft | 371 kts | 27° |
| 2026-03-26 09:50 | 37.68871 | -5.60424 | 13903 ft | 372 kts | 27° |
| 2026-03-26 09:50 | 37.71203 | -5.59006 | 14528 ft | 374 kts | 27° |
| 2026-03-26 09:50 | 37.73544 | -5.57581 | 15090 ft | 377 kts | 27° |
| 2026-03-26 09:50 | 37.75892 | -5.56151 | 15622 ft | 380 kts | 27° |
| 2026-03-26 09:51 | 37.78296 | -5.54686 | 16155 ft | 382 kts | 27° |
| 2026-03-26 09:51 | 37.80678 | -5.53233 | 16656 ft | 385 kts | 27° |
| 2026-03-26 09:51 | 37.83102 | -5.51753 | 17172 ft | 388 kts | 27° |
| 2026-03-26 09:51 | 37.85535 | -5.50267 | 17660 ft | 390 kts | 27° |
| 2026-03-26 09:52 | 37.87983 | -5.48771 | 18147 ft | 392 kts | 27° |
| 2026-03-26 09:52 | 37.90441 | -5.47268 | 18613 ft | 395 kts | 27° |
| 2026-03-26 09:52 | 37.92938 | -5.45739 | 19063 ft | 397 kts | 27° |
| 2026-03-26 09:52 | 37.95414 | -5.44222 | 19530 ft | 399 kts | 27° |
| 2026-03-26 09:53 | 37.97926 | -5.42682 | 19955 ft | 401 kts | 27° |
| 2026-03-26 09:53 | 38.00454 | -5.41131 | 20382 ft | 404 kts | 27° |
| 2026-03-26 09:53 | 38.02989 | -5.39574 | 20808 ft | 405 kts | 27° |
| 2026-03-26 09:53 | 38.05498 | -5.38033 | 21216 ft | 407 kts | 27° |
| 2026-03-26 09:54 | 38.08051 | -5.36463 | 21607 ft | 409 kts | 27° |
| 2026-03-26 09:54 | 38.10639 | -5.34869 | 21992 ft | 412 kts | 28° |
| 2026-03-26 09:54 | 38.13234 | -5.33272 | 22373 ft | 414 kts | 28° |
| 2026-03-26 09:54 | 38.15816 | -5.31680 | 22782 ft | 415 kts | 27° |
| 2026-03-26 09:55 | 38.18438 | -5.30062 | 23128 ft | 418 kts | 27° |
| 2026-03-26 09:55 | 38.21046 | -5.28452 | 23455 ft | 421 kts | 27° |
| 2026-03-26 09:55 | 38.23674 | -5.26828 | 23813 ft | 423 kts | 28° |
| 2026-03-26 09:55 | 38.26342 | -5.25178 | 24174 ft | 424 kts | 27° |
| 2026-03-26 09:56 | 38.28989 | -5.23539 | 24516 ft | 426 kts | 27° |
| 2026-03-26 09:56 | 38.31663 | -5.21883 | 24829 ft | 428 kts | 27° |
| 2026-03-26 09:56 | 38.34338 | -5.20225 | 25157 ft | 430 kts | 27° |
| 2026-03-26 09:56 | 38.37019 | -5.18562 | 25471 ft | 432 kts | 27° |
| 2026-03-26 09:57 | 38.39747 | -5.16867 | 25753 ft | 434 kts | 27° |
| 2026-03-26 09:57 | 38.42459 | -5.15182 | 26050 ft | 436 kts | 27° |
| 2026-03-26 09:57 | 38.45193 | -5.13481 | 26332 ft | 438 kts | 27° |
| 2026-03-26 09:57 | 38.47912 | -5.11789 | 26602 ft | 440 kts | 27° |
| 2026-03-26 09:58 | 38.50677 | -5.10111 | 26953 ft | 440 kts | 25° |
| 2026-03-26 09:58 | 38.53522 | -5.08596 | 27383 ft | 438 kts | 23° |
| 2026-03-26 09:58 | 38.56341 | -5.07160 | 27807 ft | 437 kts | 23° |
| 2026-03-26 09:58 | 38.59124 | -5.05737 | 28255 ft | 434 kts | 23° |
| 2026-03-26 09:59 | 38.61911 | -5.04310 | 28708 ft | 432 kts | 23° |
| 2026-03-26 09:59 | 38.64712 | -5.02875 | 29104 ft | 431 kts | 23° |
| 2026-03-26 09:59 | 38.67477 | -5.01458 | 29512 ft | 430 kts | 23° |
| 2026-03-26 09:59 | 38.70245 | -5.00038 | 29895 ft | 429 kts | 23° |
| 2026-03-26 10:00 | 38.73014 | -4.98616 | 30089 ft | 429 kts | 22° |
| 2026-03-26 10:00 | 38.78544 | -4.95773 | 30141 ft | 429 kts | 23° |
| 2026-03-26 10:01 | 38.84050 | -4.92938 | 30151 ft | 426 kts | 22° |
| 2026-03-26 10:01 | 38.89532 | -4.90111 | 30156 ft | 425 kts | 22° |
| 2026-03-26 10:02 | 38.95023 | -4.87273 | 30151 ft | 426 kts | 22° |
| 2026-03-26 10:02 | 39.00514 | -4.84429 | 30156 ft | 426 kts | 22° |
| 2026-03-26 10:03 | 39.06010 | -4.81577 | 30154 ft | 427 kts | 22° |
| 2026-03-26 10:03 | 39.11529 | -4.78703 | 30171 ft | 427 kts | 22° |
| 2026-03-26 10:04 | 39.17038 | -4.75731 | 30186 ft | 427 kts | 27° |
| 2026-03-26 10:04 | 39.21830 | -4.71185 | 30192 ft | 429 kts | 45° |
| 2026-03-26 10:04 | 39.23920 | -4.68468 | 30024 ft | 424 kts | 41° |
| 2026-03-26 10:05 | 39.26107 | -4.66003 | 29320 ft | 424 kts | 40° |
| 2026-03-26 10:05 | 39.28307 | -4.63479 | 28383 ft | 429 kts | 41° |
| 2026-03-26 10:05 | 39.32712 | -4.58197 | 26398 ft | 438 kts | 41° |
| 2026-03-26 10:06 | 39.34924 | -4.55474 | 25439 ft | 442 kts | 45° |
| 2026-03-26 10:06 | 39.36966 | -4.52513 | 24507 ft | 444 kts | 48° |
| 2026-03-26 10:06 | 39.38977 | -4.49517 | 23902 ft | 438 kts | 47° |
| 2026-03-26 10:06 | 39.41058 | -4.46699 | 23307 ft | 432 kts | 39° |
| 2026-03-26 10:07 | 39.43604 | -4.44741 | 22661 ft | 428 kts | 23° |
| 2026-03-26 10:07 | 39.46261 | -4.43027 | 22000 ft | 424 kts | 34° |
| 2026-03-26 10:07 | 39.48307 | -4.40369 | 21353 ft | 422 kts | 54° |
| 2026-03-26 10:07 | 39.49824 | -4.37136 | 20709 ft | 418 kts | 55° |
| 2026-03-26 10:08 | 39.51524 | -4.34067 | 20271 ft | 419 kts | 51° |
| 2026-03-26 10:08 | 39.53375 | -4.31133 | 20112 ft | 419 kts | 47° |
| 2026-03-26 10:08 | 39.55284 | -4.28330 | 19968 ft | 416 kts | 46° |
| 2026-03-26 10:08 | 39.57241 | -4.25588 | 19571 ft | 409 kts | 46° |
| 2026-03-26 10:09 | 39.59188 | -4.22934 | 18969 ft | 405 kts | 45° |
| 2026-03-26 10:09 | 39.61138 | -4.20319 | 18302 ft | 402 kts | 44° |
| 2026-03-26 10:09 | 39.63074 | -4.17744 | 17748 ft | 396 kts | 44° |
| 2026-03-26 10:09 | 39.64968 | -4.15234 | 17486 ft | 383 kts | 44° |